Time;durP1;ratioP1;P1;durP2;ratioP2;P2;SDS_P1;SDS_P2;PMS_P1;PMS_P2;Temp;Humidity;BMP_temperature;BMP_pressure;BME280_temperature;BME280_humidity;BME280_pressure;Samples;Min_cycle;Max_cycle;Signal;HPM_P1;HPM_P2
2023/12/04 00:00:30;;;;;;;6.75;6.15;;;15.20;37.60;;;;;;5023347;28;20216;-83
2023/12/04 00:02:57;;;;;;;7.55;6.85;;;15.20;37.50;;;;;;5028593;28;20201;-82
2023/12/04 00:05:25;;;;;;;7.32;6.63;;;15.20;37.40;;;;;;5030914;28;20220;-83
2023/12/04 00:07:53;;;;;;;7.93;6.75;;;15.20;37.50;;;;;;5033763;28;20173;-83
2023/12/04 00:10:19;;;;;;;6.53;6.00;;;15.20;37.40;;;;;;5034280;28;20201;-83
2023/12/04 00:12:47;;;;;;;7.28;6.57;;;15.20;37.40;;;;;;5034075;28;20216;-83
2023/12/04 00:15:14;;;;;;;7.32;6.63;;;15.20;37.50;;;;;;5018946;28;20221;-82
2023/12/04 00:17:40;;;;;;;6.93;6.28;;;15.20;37.40;;;;;;5018115;28;20247;-82
2023/12/04 00:20:09;;;;;;;7.40;6.70;;;15.20;37.60;;;;;;5024328;28;20189;-82
2023/12/04 00:22:38;;;;;;;6.53;5.93;;;15.20;37.40;;;;;;5030605;28;20199;-82
2023/12/04 00:25:06;;;;;;;6.80;6.20;;;15.20;37.40;;;;;;5035405;28;20220;-82
2023/12/04 00:27:33;;;;;;;7.07;6.38;;;15.10;37.40;;;;;;5035692;28;20196;-83
2023/12/04 00:30:03;;;;;;;7.07;6.38;;;15.20;37.50;;;;;;5035069;28;20201;-83
2023/12/04 00:32:30;;;;;;;7.25;6.55;;;15.10;37.40;;;;;;5035997;28;20249;-83
2023/12/04 00:34:58;;;;;;;6.82;6.22;;;15.10;37.40;;;;;;5034908;28;20575;-83
2023/12/04 00:37:25;;;;;;;7.20;6.50;;;15.10;37.40;;;;;;5031620;28;20204;-83
2023/12/04 00:39:53;;;;;;;6.50;5.95;;;15.10;37.40;;;;;;5029233;28;20197;-82
2023/12/04 00:42:20;;;;;;;7.03;6.43;;;15.10;37.40;;;;;;5029618;28;20280;-82
2023/12/04 00:50:46;;;;;;;7.10;6.50;;;15.10;37.40;;;;;;5016690;28;20592;-84
2023/12/04 00:53:13;;;;;;;6.60;6.00;;;15.10;37.40;;;;;;5016365;28;20212;-84
2023/12/04 00:55:42;;;;;;;6.40;5.82;;;15.10;37.40;;;;;;4999449;28;20691;-84
2023/12/04 00:58:10;;;;;;;6.75;6.15;;;15.10;37.40;;;;;;5016190;28;20251;-84
2023/12/04 01:00:37;;;;;;;6.53;5.93;;;15.10;37.30;;;;;;5016772;28;20200;-83
2023/12/04 01:03:04;;;;;;;6.93;6.32;;;15.10;37.40;;;;;;5017752;28;20201;-82
2023/12/04 01:05:31;;;;;;;6.93;6.25;;;15.10;37.40;;;;;;5017298;28;20205;-81
2023/12/04 01:07:58;;;;;;;7.30;6.60;;;15.10;37.40;;;;;;5018051;28;20203;-81
2023/12/04 01:10:25;;;;;;;6.68;6.07;;;15.10;37.40;;;;;;5001857;28;20200;-81
2023/12/04 01:12:54;;;;;;;6.85;6.15;;;15.10;37.40;;;;;;5000923;28;20296;-81
2023/12/04 01:15:21;;;;;;;7.03;6.32;;;15.10;37.30;;;;;;5001922;28;20647;-81
2023/12/04 01:17:48;;;;;;;7.20;6.55;;;15.10;37.40;;;;;;5018731;28;20624;-81
2023/12/04 01:20:15;;;;;;;7.43;6.70;;;15.10;37.40;;;;;;5002586;28;20219;-81
2023/12/04 01:22:43;;;;;;;6.22;5.70;;;15.10;37.40;;;;;;5017975;28;20197;-81
2023/12/04 01:25:10;;;;;;;7.13;6.43;;;15.10;37.40;;;;;;5002539;28;20283;-81
2023/12/04 01:27:37;;;;;;;7.00;6.30;;;15.10;37.40;;;;;;5017554;28;20216;-81
2023/12/04 01:30:08;;;;;;;6.63;6.00;;;15.10;37.40;;;;;;5017818;28;20215;-81
2023/12/04 01:32:35;;;;;;;5.95;5.43;;;15.10;37.40;;;;;;5017695;28;20320;-81
2023/12/04 01:35:02;;;;;;;6.75;6.05;;;15.10;37.40;;;;;;5018273;28;20196;-81
2023/12/04 01:37:30;;;;;;;6.05;5.45;;;15.10;37.40;;;;;;5001813;28;20234;-81
2023/12/04 01:39:57;;;;;;;6.30;5.72;;;15.10;37.40;;;;;;5017934;28;20201;-81
2023/12/04 01:42:24;;;;;;;6.40;5.80;;;15.10;37.40;;;;;;5017204;28;20200;-81
2023/12/04 01:44:51;;;;;;;7.85;7.05;;;15.10;37.40;;;;;;5017667;28;20203;-81
2023/12/04 01:47:21;;;;;;;6.68;6.03;;;15.10;37.30;;;;;;5017281;28;20220;-81
2023/12/04 01:49:48;;;;;;;6.80;6.10;;;15.00;37.30;;;;;;5018823;28;20259;-81
2023/12/04 01:52:15;;;;;;;6.45;5.85;;;15.10;37.40;;;;;;5000826;28;20666;-81
2023/12/04 01:54:42;;;;;;;6.57;5.97;;;15.00;37.20;;;;;;5015799;28;20292;-81
2023/12/04 01:57:09;;;;;;;6.15;5.57;;;15.10;37.40;;;;;;5015922;28;20221;-81
2023/12/04 01:59:37;;;;;;;6.57;5.95;;;15.00;37.20;;;;;;5016246;28;20251;-81
2023/12/04 02:02:05;;;;;;;7.00;6.30;;;15.00;37.20;;;;;;5016494;28;20262;-81
2023/12/04 02:04:33;;;;;;;6.18;5.57;;;15.10;37.40;;;;;;5016141;28;20200;-81
2023/12/04 02:07:01;;;;;;;6.70;6.10;;;15.00;37.10;;;;;;5015984;28;20240;-81
2023/12/04 02:09:29;;;;;;;6.22;5.72;;;15.10;37.20;;;;;;5016635;28;20193;-81
2023/12/04 02:11:56;;;;;;;7.03;6.32;;;15.10;37.30;;;;;;4999616;28;20193;-81
2023/12/04 02:14:22;;;;;;;6.30;5.70;;;15.00;37.20;;;;;;5015422;28;20244;-81
2023/12/04 02:16:50;;;;;;;6.45;5.85;;;15.10;37.20;;;;;;5015163;28;20221;-81
2023/12/04 02:19:17;;;;;;;6.10;5.57;;;15.10;37.20;;;;;;5014989;28;20201;-81
2023/12/04 02:21:45;;;;;;;6.07;5.47;;;15.10;37.20;;;;;;5018290;28;20204;-81
2023/12/04 02:24:14;;;;;;;5.72;5.22;;;15.10;37.20;;;;;;5017695;28;20192;-81
2023/12/04 02:26:43;;;;;;;6.60;6.00;;;15.10;37.30;;;;;;5016815;28;20212;-81
2023/12/04 02:29:12;;;;;;;5.65;5.15;;;15.00;37.10;;;;;;5016682;28;20197;-81
2023/12/04 02:31:39;;;;;;;6.50;5.90;;;15.00;37.10;;;;;;5016258;28;20216;-81
2023/12/04 02:34:07;;;;;;;6.40;5.80;;;15.00;37.30;;;;;;5016148;28;20231;-81
2023/12/04 02:36:33;;;;;;;6.05;5.45;;;15.00;37.20;;;;;;5000145;28;20217;-81
2023/12/04 02:39:01;;;;;;;5.80;5.28;;;15.00;37.30;;;;;;5016750;28;20197;-81
2023/12/04 02:41:29;;;;;;;6.72;6.07;;;15.00;37.20;;;;;;5016560;28;20228;-81
2023/12/04 02:43:56;;;;;;;6.35;5.75;;;15.00;37.20;;;;;;5016236;28;20200;-81
2023/12/04 02:46:23;;;;;;;5.90;5.35;;;15.00;37.00;;;;;;5015678;28;20694;-81
2023/12/04 02:48:50;;;;;;;6.05;5.47;;;15.00;37.10;;;;;;5015440;28;20200;-81
2023/12/04 02:51:17;;;;;;;6.10;5.60;;;15.00;37.10;;;;;;4999367;28;20204;-82
2023/12/04 02:53:44;;;;;;;5.65;5.15;;;15.00;37.20;;;;;;5015430;28;20224;-81
2023/12/04 02:56:12;;;;;;;5.88;5.38;;;15.00;37.10;;;;;;5014293;28;20637;-81
2023/12/04 02:58:40;;;;;;;5.95;5.35;;;15.00;37.00;;;;;;5013896;28;20196;-81
2023/12/04 03:01:08;;;;;;;6.10;5.50;;;15.00;37.10;;;;;;5013957;28;20620;-81
2023/12/04 03:03:35;;;;;;;5.90;5.40;;;15.00;37.20;;;;;;5014657;28;20613;-81
2023/12/04 03:06:01;;;;;;;5.55;5.05;;;15.00;37.10;;;;;;5014512;28;20324;-81
2023/12/04 03:08:29;;;;;;;5.45;4.95;;;15.00;37.10;;;;;;5014183;28;20207;-81
2023/12/04 03:10:56;;;;;;;5.72;5.22;;;15.00;37.30;;;;;;5014653;28;20197;-81
2023/12/04 03:13:23;;;;;;;5.22;4.78;;;15.00;37.20;;;;;;4999236;28;20238;-81
2023/12/04 03:15:52;;;;;;;5.60;5.10;;;15.00;37.20;;;;;;5014919;28;20217;-81
2023/12/04 03:18:19;;;;;;;5.60;5.10;;;15.00;37.20;;;;;;5015219;28;20288;-81
2023/12/04 03:20:46;;;;;;;5.25;4.82;;;15.00;37.00;;;;;;5015312;28;20196;-81
2023/12/04 03:23:13;;;;;;;5.38;4.90;;;15.00;37.00;;;;;;5014747;28;20734;-82
2023/12/04 03:25:40;;;;;;;5.88;5.25;;;15.10;37.20;;;;;;5014533;28;20748;-82
2023/12/04 03:28:08;;;;;;;5.30;4.80;;;15.00;36.80;;;;;;5014084;28;20207;-81
2023/12/04 03:30:34;;;;;;;5.30;4.80;;;15.10;37.10;;;;;;5014215;28;20201;-82
2023/12/04 03:33:03;;;;;;;5.60;5.10;;;15.00;37.10;;;;;;5014013;28;20248;-81
2023/12/04 03:35:30;;;;;;;6.05;5.47;;;15.00;37.10;;;;;;5016816;28;20216;-81
2023/12/04 03:37:57;;;;;;;5.78;5.28;;;15.00;37.00;;;;;;5021161;28;20209;-82
2023/12/04 03:40:24;;;;;;;5.35;4.85;;;15.00;37.00;;;;;;5020585;28;20211;-82
2023/12/04 03:42:50;;;;;;;5.43;4.75;;;15.00;37.10;;;;;;5021717;28;20203;-81
2023/12/04 03:45:18;;;;;;;5.80;5.20;;;15.00;37.00;;;;;;5020669;28;20619;-81
2023/12/04 03:47:44;;;;;;;5.60;5.10;;;15.00;37.10;;;;;;5020694;28;20267;-82
2023/12/04 03:50:13;;;;;;;5.93;5.32;;;15.00;37.10;;;;;;5020840;28;20203;-82
2023/12/04 03:52:41;;;;;;;5.50;5.00;;;15.00;37.00;;;;;;5021350;28;20555;-81
2023/12/04 03:55:09;;;;;;;5.40;4.90;;;15.00;36.90;;;;;;5020838;28;20255;-82
2023/12/04 03:57:36;;;;;;;6.22;5.60;;;15.00;36.90;;;;;;5021652;28;20224;-81
2023/12/04 04:00:04;;;;;;;5.30;4.90;;;15.10;37.10;;;;;;5020778;28;20204;-82
2023/12/04 04:02:39;;;;;;;5.05;4.63;;;15.00;37.00;;;;;;5022432;28;20605;-82
2023/12/04 04:05:07;;;;;;;5.63;5.03;;;15.00;37.00;;;;;;5021197;28;20192;-81
2023/12/04 04:07:35;;;;;;;5.72;5.13;;;15.00;37.00;;;;;;5020217;28;20221;-80
2023/12/04 04:10:04;;;;;;;5.38;4.88;;;15.00;37.00;;;;;;5019529;28;20548;-82
2023/12/04 04:12:31;;;;;;;4.90;4.50;;;15.00;37.00;;;;;;5019808;28;20232;-82
2023/12/04 04:14:59;;;;;;;5.35;4.85;;;15.00;37.20;;;;;;5019859;28;20252;-82
2023/12/04 04:17:26;;;;;;;5.20;4.70;;;15.00;37.20;;;;;;5019656;28;20698;-82
2023/12/04 04:19:53;;;;;;;5.88;5.28;;;14.90;37.00;;;;;;5020025;28;20207;-82
2023/12/04 04:22:20;;;;;;;5.40;4.90;;;15.00;37.10;;;;;;5019479;28;20659;-82
2023/12/04 04:24:48;;;;;;;5.20;4.80;;;15.00;37.10;;;;;;5003365;28;20695;-81
2023/12/04 04:27:15;;;;;;;5.13;4.63;;;14.90;36.90;;;;;;5019275;28;20224;-82
2023/12/04 04:29:42;;;;;;;5.32;4.82;;;14.90;37.10;;;;;;5019504;28;20572;-81
2023/12/04 04:32:09;;;;;;;5.93;5.43;;;14.90;37.00;;;;;;5019543;28;20568;-82
2023/12/04 04:34:36;;;;;;;5.15;4.68;;;14.80;36.80;;;;;;5003107;28;20217;-82
2023/12/04 04:37:03;;;;;;;5.57;5.07;;;14.80;36.90;;;;;;5003347;28;20220;-81
2023/12/04 04:39:31;;;;;;;5.88;5.38;;;14.70;36.40;;;;;;5019380;28;20197;-82
2023/12/04 04:41:59;;;;;;;5.78;5.28;;;14.70;36.70;;;;;;5019783;28;20200;-81
2023/12/04 04:44:26;;;;;;;5.05;4.57;;;14.70;37.00;;;;;;5020887;28;20246;-82
2023/12/04 04:46:53;;;;;;;5.45;4.95;;;14.70;37.20;;;;;;5018251;28;20220;-81
2023/12/04 04:49:20;;;;;;;5.18;4.68;;;14.60;37.40;;;;;;5015817;28;20189;-82
2023/12/04 04:51:47;;;;;;;5.38;4.88;;;14.60;37.50;;;;;;5016385;28;20232;-82
2023/12/04 04:54:14;;;;;;;5.97;5.28;;;14.60;37.50;;;;;;5000208;28;20275;-81
2023/12/04 04:56:41;;;;;;;5.15;4.65;;;14.60;37.60;;;;;;5016145;28;20300;-81
2023/12/04 04:59:10;;;;;;;5.15;4.65;;;14.60;37.50;;;;;;5016144;28;20200;-81
2023/12/04 05:01:37;;;;;;;4.85;4.45;;;14.70;37.40;;;;;;5015826;28;20197;-81
2023/12/04 05:04:04;;;;;;;5.20;4.70;;;14.70;37.30;;;;;;5001364;28;20225;-82
2023/12/04 05:06:31;;;;;;;5.15;4.70;;;14.80;37.40;;;;;;5016824;28;20225;-82
2023/12/04 05:08:58;;;;;;;4.35;4.00;;;14.80;37.40;;;;;;5016768;28;20549;-82
2023/12/04 05:11:25;;;;;;;5.28;4.78;;;14.80;37.40;;;;;;5017186;28;20283;-81
2023/12/04 05:13:52;;;;;;;4.75;4.32;;;14.80;37.20;;;;;;5017037;28;20240;-81
2023/12/04 05:16:21;;;;;;;4.88;4.45;;;14.70;37.20;;;;;;5016967;28;20216;-82
2023/12/04 05:18:48;;;;;;;5.10;4.60;;;14.80;37.20;;;;;;5016904;28;20204;-81
2023/12/04 05:21:15;;;;;;;4.60;4.10;;;14.80;37.10;;;;;;5017208;28;20204;-81
2023/12/04 05:23:42;;;;;;;4.93;4.50;;;14.80;37.10;;;;;;5016700;28;20536;-81
2023/12/04 05:26:09;;;;;;;5.20;4.72;;;14.90;37.20;;;;;;5016508;28;20224;-81
2023/12/04 05:28:36;;;;;;;4.82;4.43;;;14.90;37.00;;;;;;5016574;28;20729;-81
2023/12/04 05:31:04;;;;;;;4.90;4.50;;;14.90;37.10;;;;;;5016542;28;20197;-81
2023/12/04 05:33:32;;;;;;;5.10;4.60;;;14.90;37.20;;;;;;5000522;28;20193;-81
2023/12/04 05:36:01;;;;;;;5.10;4.60;;;14.90;37.00;;;;;;5016106;28;20252;-81
2023/12/04 05:38:27;;;;;;;5.65;5.15;;;14.90;37.00;;;;;;5017069;28;20192;-82
2023/12/04 05:40:55;;;;;;;5.43;4.53;;;14.90;36.90;;;;;;5016523;28;20243;-81
2023/12/04 05:43:22;;;;;;;4.82;4.43;;;14.90;37.00;;;;;;5016500;28;20219;-82
2023/12/04 05:45:49;;;;;;;5.13;4.63;;;14.90;36.80;;;;;;5016663;28;20252;-82
2023/12/04 05:48:17;;;;;;;4.80;4.40;;;15.00;36.90;;;;;;5016178;28;20702;-82
2023/12/04 05:50:45;;;;;;;6.05;5.45;;;15.00;36.90;;;;;;5016105;28;20219;-81
2023/12/04 05:53:12;;;;;;;5.20;4.70;;;15.00;36.80;;;;;;5016334;28;20204;-81
2023/12/04 05:55:40;;;;;;;4.90;4.50;;;15.00;36.70;;;;;;5015942;28;20217;-82
2023/12/04 05:58:07;;;;;;;5.40;4.90;;;15.00;36.60;;;;;;5015207;28;20197;-82
2023/12/04 06:00:34;;;;;;;5.30;4.80;;;15.00;36.70;;;;;;4999143;28;20201;-82
2023/12/04 06:03:01;;;;;;;5.30;4.80;;;15.00;36.60;;;;;;5015745;28;20200;-82
2023/12/04 06:05:28;;;;;;;5.22;4.72;;;15.00;36.80;;;;;;5015379;28;20301;-81
2023/12/04 06:07:57;;;;;;;5.10;4.68;;;15.00;36.70;;;;;;5016144;28;20205;-82
2023/12/04 06:10:24;;;;;;;5.20;4.70;;;15.00;36.60;;;;;;5015681;28;20213;-82
2023/12/04 06:12:51;;;;;;;5.13;4.63;;;15.00;36.70;;;;;;5015284;28;20260;-81
2023/12/04 06:15:19;;;;;;;4.70;4.30;;;15.00;37.40;;;;;;5015913;28;20220;-82
2023/12/04 06:17:46;;;;;;;5.18;4.68;;;15.00;36.70;;;;;;4999245;28;20228;-82
2023/12/04 06:20:13;;;;;;;4.90;4.50;;;15.00;36.80;;;;;;5015161;28;20193;-81
2023/12/04 06:22:41;;;;;;;4.93;4.45;;;15.00;36.80;;;;;;5015079;28;20192;-82
2023/12/04 06:25:11;;;;;;;4.97;4.57;;;15.00;36.70;;;;;;5014886;28;20274;-81
2023/12/04 06:27:39;;;;;;;5.18;4.72;;;15.00;36.80;;;;;;5015768;28;20290;-81
2023/12/04 06:30:09;;;;;;;5.00;4.50;;;15.00;36.60;;;;;;5014817;28;20259;-81
2023/12/04 06:32:36;;;;;;;5.43;4.93;;;15.00;36.70;;;;;;5014575;28;20584;-81
2023/12/04 06:35:04;;;;;;;4.32;3.92;;;15.00;36.70;;;;;;5014194;28;20239;-82
2023/12/04 06:37:32;;;;;;;5.18;4.68;;;15.00;36.80;;;;;;5014730;28;20239;-81
2023/12/04 06:39:59;;;;;;;4.60;4.20;;;15.00;36.80;;;;;;5015326;28;20205;-81
2023/12/04 06:42:28;;;;;;;4.88;4.47;;;15.00;36.70;;;;;;5014297;28;20237;-82
2023/12/04 06:44:56;;;;;;;5.40;4.90;;;15.00;36.70;;;;;;5015065;28;20244;-81
2023/12/04 06:47:24;;;;;;;5.10;4.60;;;15.10;36.60;;;;;;5015365;28;20225;-82
2023/12/04 06:49:51;;;;;;;5.00;4.53;;;15.00;36.60;;;;;;5015764;28;20204;-81
2023/12/04 06:52:18;;;;;;;5.00;4.55;;;15.00;36.80;;;;;;5016414;28;20299;-82
2023/12/04 06:54:44;;;;;;;5.43;4.93;;;15.00;36.80;;;;;;5014528;28;20224;-82
2023/12/04 06:57:14;;;;;;;5.15;4.75;;;15.00;36.50;;;;;;5014189;28;20641;-81
2023/12/04 06:59:43;;;;;;;4.90;4.50;;;14.90;36.40;;;;;;5014015;28;20288;-81
2023/12/04 07:02:09;;;;;;;5.70;5.20;;;14.90;36.70;;;;;;5013676;28;20643;-82
2023/12/04 07:04:37;;;;;;;4.88;4.47;;;14.90;36.80;;;;;;5014373;28;20207;-81
2023/12/04 07:07:05;;;;;;;4.40;4.05;;;14.80;36.80;;;;;;5014360;28;20239;-81
2023/12/04 07:09:33;;;;;;;5.43;4.93;;;14.80;36.80;;;;;;5016335;28;20200;-82
2023/12/04 07:12:00;;;;;;;5.05;4.65;;;14.80;37.10;;;;;;5015334;28;20223;-82
2023/12/04 07:14:27;;;;;;;5.30;4.80;;;14.80;37.10;;;;;;5013941;28;20227;-82
2023/12/04 07:16:56;;;;;;;5.00;4.60;;;14.80;37.10;;;;;;5014148;28;20216;-82
2023/12/04 07:19:23;;;;;;;4.88;4.38;;;14.80;37.10;;;;;;5013802;28;20193;-82
2023/12/04 07:21:50;;;;;;;4.60;4.20;;;14.80;36.90;;;;;;5013496;28;20211;-81
2023/12/04 07:24:17;;;;;;;4.53;4.13;;;14.80;37.10;;;;;;4997384;28;20227;-81
2023/12/04 07:26:44;;;;;;;4.75;4.25;;;14.80;37.00;;;;;;5013467;28;20248;-81
2023/12/04 07:29:11;;;;;;;4.63;4.22;;;14.90;37.00;;;;;;5015212;28;20655;-82
2023/12/04 07:31:38;;;;;;;4.60;4.20;;;14.90;37.00;;;;;;5015841;28;20196;-81
2023/12/04 07:34:07;;;;;;;4.80;4.40;;;14.90;37.50;;;;;;5015512;28;20208;-82
2023/12/04 07:36:34;;;;;;;5.13;4.63;;;15.00;37.00;;;;;;5017293;28;20619;-82
2023/12/04 07:39:01;;;;;;;5.15;4.72;;;15.00;36.90;;;;;;5015536;28;20255;-82
2023/12/04 07:41:28;;;;;;;4.57;4.18;;;15.00;36.80;;;;;;5015966;28;20203;-81
2023/12/04 07:43:55;;;;;;;5.28;4.80;;;15.10;37.30;;;;;;5015754;28;20197;-82
2023/12/04 07:46:22;;;;;;;4.80;4.40;;;15.10;36.90;;;;;;5015789;28;20225;-82
2023/12/04 07:48:50;;;;;;;4.60;4.20;;;15.10;36.80;;;;;;5015567;28;20197;-81
2023/12/04 07:51:18;;;;;;;4.82;4.43;;;15.10;37.00;;;;;;5013240;28;20675;-81
2023/12/04 07:53:47;;;;;;;5.35;4.85;;;15.10;36.80;;;;;;5013667;28;20243;-82
2023/12/04 07:56:14;;;;;;;5.25;4.75;;;15.10;36.60;;;;;;5012906;28;20687;-82
2023/12/04 07:58:41;;;;;;;4.90;4.50;;;15.10;36.70;;;;;;5013432;28;20211;-82
2023/12/04 08:01:09;;;;;;;5.20;4.70;;;15.10;36.70;;;;;;5013172;28;20203;-82
2023/12/04 08:03:36;;;;;;;5.07;4.68;;;15.10;36.70;;;;;;5013888;28;20227;-82
2023/12/04 08:06:04;;;;;;;5.38;4.88;;;15.10;36.60;;;;;;5013650;28;20561;-82
2023/12/04 08:08:33;;;;;;;4.95;4.55;;;15.10;36.60;;;;;;5013547;28;20549;-82
2023/12/04 08:10:59;;;;;;;5.25;4.30;;;15.10;36.50;;;;;;5014385;28;20393;-82
2023/12/04 08:13:26;;;;;;;4.80;4.40;;;15.10;36.50;;;;;;5013789;28;20658;-82
2023/12/04 08:15:54;;;;;;;4.72;4.32;;;15.10;36.60;;;;;;5013925;28;20228;-82
2023/12/04 08:18:21;;;;;;;4.63;4.22;;;15.20;36.60;;;;;;5014118;28;20281;-82
2023/12/04 08:20:48;;;;;;;4.97;4.55;;;15.20;36.80;;;;;;5014353;28;20193;-82
2023/12/04 08:23:15;;;;;;;5.18;4.78;;;15.20;36.40;;;;;;5017075;28;20196;-82
2023/12/04 08:25:43;;;;;;;5.20;4.65;;;15.20;36.40;;;;;;5017775;28;20616;-81
2023/12/04 08:28:10;;;;;;;6.03;4.78;;;15.20;36.90;;;;;;5017976;28;20200;-82
2023/12/04 08:30:37;;;;;;;5.28;4.55;;;15.20;36.30;;;;;;5017601;28;20200;-82
2023/12/04 08:33:04;;;;;;;4.72;4.32;;;15.20;36.60;;;;;;5017588;28;20200;-82
2023/12/04 08:35:30;;;;;;;4.95;4.55;;;15.20;36.40;;;;;;5017288;28;20224;-82
2023/12/04 08:37:57;;;;;;;4.50;4.10;;;15.20;36.40;;;;;;5017598;28;20201;-82
2023/12/04 08:40:24;;;;;;;5.18;4.55;;;15.30;36.80;;;;;;5016312;28;20201;-82
2023/12/04 08:42:53;;;;;;;5.95;5.28;;;15.30;36.30;;;;;;5016397;28;20220;-82
2023/12/04 08:45:20;;;;;;;5.15;4.72;;;15.30;36.20;;;;;;5016262;28;20650;-82
2023/12/04 08:47:48;;;;;;;5.75;5.05;;;15.30;36.70;;;;;;5000562;28;20270;-82
2023/12/04 08:50:16;;;;;;;5.30;4.80;;;15.30;36.20;;;;;;5000440;28;20255;-82
2023/12/04 08:52:43;;;;;;;5.00;4.60;;;15.30;36.20;;;;;;5016689;28;20215;-82
2023/12/04 08:55:10;;;;;;;4.72;4.30;;;15.30;36.10;;;;;;5016457;28;20219;-82
2023/12/04 08:57:37;;;;;;;5.30;4.80;;;15.40;36.20;;;;;;5017161;28;20221;-82
2023/12/04 09:00:08;;;;;;;5.40;4.88;;;15.40;36.20;;;;;;5016760;28;20208;-82
2023/12/04 09:02:35;;;;;;;5.63;5.13;;;15.40;36.20;;;;;;5017983;28;20201;-82
2023/12/04 09:05:02;;;;;;;5.35;4.85;;;15.40;36.20;;;;;;5016543;28;20643;-82
2023/12/04 09:07:29;;;;;;;5.88;5.38;;;15.40;36.20;;;;;;5016754;28;20220;-82
2023/12/04 09:09:57;;;;;;;5.22;4.72;;;15.40;36.10;;;;;;5016511;28;20285;-82
2023/12/04 09:12:24;;;;;;;5.70;5.20;;;15.40;36.10;;;;;;5016401;28;20681;-82
2023/12/04 09:14:51;;;;;;;5.20;4.70;;;15.40;37.00;;;;;;5016335;28;20630;-82
2023/12/04 09:17:20;;;;;;;5.78;5.28;;;15.40;36.90;;;;;;5016165;28;20247;-82
2023/12/04 09:19:47;;;;;;;4.97;4.57;;;15.40;36.30;;;;;;5015706;28;20569;-82
2023/12/04 09:22:14;;;;;;;6.80;6.10;;;15.40;36.10;;;;;;5015905;28;20201;-81
2023/12/04 09:24:41;;;;;;;5.70;5.20;;;15.40;36.30;;;;;;5015514;28;20209;-82
2023/12/04 09:27:08;;;;;;;5.60;5.10;;;15.30;36.40;;;;;;5015603;28;20231;-82
2023/12/04 09:29:35;;;;;;;5.97;5.47;;;15.30;36.20;;;;;;5015285;28;20201;-82
2023/12/04 09:32:02;;;;;;;6.20;5.60;;;15.20;36.20;;;;;;5015611;28;20197;-81
2023/12/04 09:34:30;;;;;;;5.32;4.60;;;15.30;36.20;;;;;;5015417;28;20259;-82
2023/12/04 09:36:57;;;;;;;5.38;4.88;;;15.30;36.40;;;;;;5016851;28;20251;-82
2023/12/04 09:39:25;;;;;;;5.70;5.10;;;15.30;36.50;;;;;;5016172;28;20201;-82
2023/12/04 09:41:51;;;;;;;5.85;4.82;;;15.30;36.40;;;;;;5015080;28;20197;-82
2023/12/04 09:44:18;;;;;;;5.97;5.40;;;15.40;36.20;;;;;;5015227;28;20290;-82
2023/12/04 09:46:45;;;;;;;5.40;4.90;;;15.40;36.10;;;;;;5015534;28;20710;-83
2023/12/04 09:49:13;;;;;;;6.05;5.40;;;15.40;36.20;;;;;;5015425;28;20201;-82
2023/12/04 09:51:41;;;;;;;5.18;4.68;;;15.50;36.20;;;;;;5015746;28;20215;-82
2023/12/04 09:54:08;;;;;;;5.25;4.75;;;15.50;36.20;;;;;;5015886;28;20223;-82
2023/12/04 09:56:35;;;;;;;5.40;4.90;;;15.50;36.00;;;;;;5016039;28;20717;-82
2023/12/04 09:59:02;;;;;;;6.10;5.50;;;15.50;36.10;;;;;;5015763;28;20726;-82
2023/12/04 10:01:29;;;;;;;5.82;5.32;;;15.50;35.90;;;;;;5015698;28;20201;-82
2023/12/04 10:03:58;;;;;;;5.68;5.18;;;15.60;36.00;;;;;;5015923;28;20629;-82
2023/12/04 10:06:27;;;;;;;6.22;5.65;;;15.60;35.80;;;;;;5016241;28;20213;-82
2023/12/04 10:08:57;;;;;;;5.50;5.00;;;15.50;35.90;;;;;;5016199;28;20201;-82
2023/12/04 10:11:26;;;;;;;6.00;5.40;;;15.60;35.90;;;;;;5016521;28;20205;-82
2023/12/04 10:13:53;;;;;;;6.07;5.47;;;15.60;35.90;;;;;;5016211;28;20204;-82
2023/12/04 10:16:35;;;;;;;7.00;6.10;;;15.60;35.90;;;;;;5016186;28;20316;-81
2023/12/04 10:19:18;;;;;;;5.90;5.18;;;15.60;35.90;;;;;;5016848;28;20251;-82
2023/12/04 10:21:46;;;;;;;5.40;4.90;;;15.60;35.80;;;;;;5016646;28;20197;-81
2023/12/04 10:24:14;;;;;;;5.75;5.18;;;15.60;35.80;;;;;;5016238;28;20664;-81
2023/12/04 10:26:50;;;;;;;5.72;5.10;;;15.70;35.90;;;;;;5015630;28;20217;-82
2023/12/04 10:29:18;;;;;;;5.85;5.25;;;15.60;35.80;;;;;;5016376;28;20262;-82
2023/12/04 10:31:45;;;;;;;5.80;5.07;;;15.60;35.90;;;;;;5015915;28;20203;-81
2023/12/04 10:34:11;;;;;;;5.63;5.13;;;15.70;35.80;;;;;;5017268;28;20196;-82
2023/12/04 10:36:38;;;;;;;5.93;5.38;;;15.70;35.80;;;;;;5016819;28;20228;-82
2023/12/04 10:39:05;;;;;;;6.43;5.43;;;15.70;35.80;;;;;;5015918;28;20602;-82
2023/12/04 10:41:33;;;;;;;6.30;5.70;;;15.70;35.90;;;;;;4998632;28;20561;-82
2023/12/04 10:44:01;;;;;;;6.35;5.30;;;15.70;35.60;;;;;;5015389;28;20542;-82
2023/12/04 10:46:29;;;;;;;5.00;4.57;;;15.60;35.80;;;;;;5014198;28;20216;-82
2023/12/04 10:48:56;;;;;;;5.72;5.15;;;15.70;35.90;;;;;;4999461;28;20288;-82
2023/12/04 10:51:23;;;;;;;5.45;4.82;;;15.70;35.90;;;;;;5015937;28;20193;-82
2023/12/04 10:53:50;;;;;;;4.93;4.53;;;15.70;35.90;;;;;;5016428;28;20655;-82
2023/12/04 10:56:20;;;;;;;5.85;5.25;;;15.70;36.00;;;;;;4998920;28;20217;-81
2023/12/04 10:58:49;;;;;;;6.25;5.00;;;15.70;35.90;;;;;;5014991;28;20295;-81
2023/12/04 11:01:17;;;;;;;6.20;5.00;;;15.70;36.10;;;;;;5015113;28;20245;-80
2023/12/04 11:03:45;;;;;;;5.85;5.25;;;15.70;35.90;;;;;;5015129;28;20208;-82
2023/12/04 11:06:12;;;;;;;5.47;4.97;;;15.70;36.60;;;;;;5014869;28;20208;-82
2023/12/04 11:08:39;;;;;;;6.00;5.40;;;15.70;36.00;;;;;;5015606;28;20204;-82
2023/12/04 11:11:07;;;;;;;6.05;4.78;;;15.70;36.00;;;;;;5015240;28;20204;-81
2023/12/04 11:13:35;;;;;;;5.68;5.18;;;15.80;36.10;;;;;;5015190;28;20208;-82
2023/12/04 11:16:06;;;;;;;6.38;5.78;;;15.80;36.20;;;;;;5015150;28;20225;-82
2023/12/04 11:18:37;;;;;;;6.68;5.60;;;15.80;36.00;;;;;;5015305;28;20582;-81
2023/12/04 11:21:09;;;;;;;6.22;5.63;;;15.80;35.70;;;;;;5016547;28;20224;-81
2023/12/04 11:23:37;;;;;;;5.97;5.38;;;15.80;36.00;;;;;;4999421;28;20559;-81
2023/12/04 11:26:05;;;;;;;6.10;5.60;;;15.80;35.80;;;;;;5015733;28;20209;-80
2023/12/04 11:28:31;;;;;;;5.43;4.93;;;15.80;35.80;;;;;;5015640;28;20207;-80
2023/12/04 11:30:58;;;;;;;6.20;5.60;;;15.90;36.00;;;;;;5015966;28;20295;-80
2023/12/04 11:33:27;;;;;;;5.38;4.85;;;15.90;35.90;;;;;;4980865;28;20289;-80
2023/12/04 11:35:53;;;;;;;5.93;5.30;;;15.90;36.00;;;;;;5012967;28;20236;-80
2023/12/04 11:38:21;;;;;;;5.50;5.00;;;15.80;35.90;;;;;;5013161;28;20574;-80
2023/12/04 11:40:48;;;;;;;5.30;4.80;;;15.80;36.00;;;;;;5014338;28;20566;-80
2023/12/04 11:43:25;;;;;;;6.30;5.70;;;15.80;36.10;;;;;;5013621;28;20211;-80
2023/12/04 11:45:52;;;;;;;6.10;5.50;;;15.80;36.00;;;;;;5015486;28;20216;-80
2023/12/04 11:48:23;;;;;;;5.93;5.32;;;15.70;35.90;;;;;;5015492;28;20210;-80
2023/12/04 11:50:52;;;;;;;5.85;5.35;;;15.70;36.10;;;;;;5013275;28;20214;-80
2023/12/04 11:53:19;;;;;;;6.18;5.50;;;15.70;36.10;;;;;;5014047;28;20553;-80
2023/12/04 11:55:46;;;;;;;5.90;5.30;;;15.70;36.10;;;;;;5013085;28;20267;-80
2023/12/04 11:58:13;;;;;;;5.57;5.07;;;15.70;36.30;;;;;;5016514;28;20201;-80
2023/12/04 12:00:40;;;;;;;6.00;5.40;;;15.70;36.20;;;;;;5018472;28;20200;-80
2023/12/04 12:03:09;;;;;;;5.47;5.00;;;15.70;36.20;;;;;;5017274;28;20651;-80
2023/12/04 12:05:38;;;;;;;5.78;5.28;;;15.70;36.20;;;;;;5017542;28;20266;-80
2023/12/04 12:08:07;;;;;;;6.43;5.82;;;15.70;36.10;;;;;;5017738;28;20201;-80
2023/12/04 12:10:35;;;;;;;6.03;5.43;;;15.70;36.30;;;;;;5001156;28;20239;-80
2023/12/04 12:13:02;;;;;;;6.18;5.00;;;15.70;36.20;;;;;;5017638;28;20643;-80
2023/12/04 12:15:29;;;;;;;5.28;4.78;;;15.70;36.30;;;;;;5017877;28;20205;-80
2023/12/04 12:17:56;;;;;;;5.45;4.95;;;15.70;36.30;;;;;;5017980;28;20207;-80
2023/12/04 12:20:23;;;;;;;6.00;5.45;;;15.70;36.20;;;;;;5017437;28;20229;-80
2023/12/04 12:22:50;;;;;;;6.18;5.57;;;15.80;36.40;;;;;;5017305;28;20645;-80
2023/12/04 12:25:19;;;;;;;6.75;6.05;;;15.80;36.20;;;;;;5017117;28;20201;-80
2023/12/04 12:27:46;;;;;;;6.32;5.78;;;15.80;36.40;;;;;;5017339;28;20189;-80
2023/12/04 12:30:14;;;;;;;5.60;5.10;;;15.90;36.20;;;;;;5017217;28;20196;-80
2023/12/04 12:32:41;;;;;;;5.82;5.30;;;15.80;36.20;;;;;;5016932;28;20211;-80
2023/12/04 12:35:09;;;;;;;6.15;5.55;;;15.90;36.40;;;;;;5017025;28;20620;-80
2023/12/04 12:37:36;;;;;;;5.68;5.07;;;15.80;36.30;;;;;;5017104;28;20239;-80
2023/12/04 12:40:05;;;;;;;5.78;5.18;;;15.90;36.30;;;;;;5016813;28;20197;-80
2023/12/04 12:42:34;;;;;;;6.30;5.70;;;15.90;36.10;;;;;;5017208;28;20197;-80
2023/12/04 12:45:01;;;;;;;5.95;5.20;;;15.90;36.20;;;;;;5016285;28;20291;-80
2023/12/04 12:47:28;;;;;;;6.40;5.80;;;15.90;36.20;;;;;;5016614;28;20212;-80
2023/12/04 12:49:56;;;;;;;5.80;5.07;;;16.00;36.30;;;;;;5017702;28;20197;-80
2023/12/04 12:52:23;;;;;;;6.03;5.40;;;15.90;36.30;;;;;;5000057;28;20212;-80
2023/12/04 12:54:50;;;;;;;5.78;5.28;;;15.90;36.30;;;;;;5016686;28;20288;-80